Time;durP1;ratioP1;P1;durP2;ratioP2;P2;SDS_P1;SDS_P2;PMS_P1;PMS_P2;Temp;Humidity;BMP_temperature;BMP_pressure;BME280_temperature;BME280_humidity;BME280_pressure;Samples;Min_cycle;Max_cycle;Signal;HPM_P1;HPM_P2
2021/01/04 00:01:36;;;;;;;45.00;40.38;;;3.10;89.00;;;;;;5055046;28;20287;-78
2021/01/04 00:04:15;;;;;;;43.08;38.47;;;3.00;89.60;;;;;;5060836;28;20199;-79
2021/01/04 00:07:11;;;;;;;47.97;42.88;;;3.00;88.50;;;;;;5074334;28;20220;-78
2021/01/04 00:09:57;;;;;;;49.67;43.38;;;2.90;89.20;;;;;;5074564;28;20195;-79
2021/01/04 00:12:28;;;;;;;43.90;39.65;;;2.80;90.70;;;;;;5074457;28;20206;-79
2021/01/04 00:15:03;;;;;;;43.17;38.88;;;2.70;90.70;;;;;;5073431;28;20192;-79
2021/01/04 00:17:47;;;;;;;45.63;41.05;;;2.70;90.20;;;;;;5074020;28;20581;-79
2021/01/04 00:20:22;;;;;;;46.55;41.55;;;2.80;89.60;;;;;;5074184;28;20188;-78
2021/01/04 00:22:57;;;;;;;44.53;39.70;;;2.80;89.80;;;;;;5073448;28;20219;-78
2021/01/04 00:25:29;;;;;;;41.33;37.00;;;3.00;88.60;;;;;;5072381;28;20286;-76
2021/01/04 00:28:01;;;;;;;43.47;37.97;;;3.00;88.00;;;;;;5053540;28;20220;-76
2021/01/04 00:30:31;;;;;;;43.38;38.92;;;2.90;87.60;;;;;;5053367;28;20215;-76
2021/01/04 00:33:04;;;;;;;42.42;38.13;;;2.90;88.50;;;;;;5053750;28;20196;-76
2021/01/04 00:35:32;;;;;;;42.20;38.08;;;2.90;88.80;;;;;;5053359;28;20203;-76
2021/01/04 00:38:29;;;;;;;44.13;39.35;;;2.80;87.90;;;;;;5059792;28;20538;-76
2021/01/04 00:41:08;;;;;;;49.53;42.03;;;2.70;88.60;;;;;;5073451;28;20196;-76
2021/01/04 00:43:41;;;;;;;48.35;43.25;;;2.70;89.20;;;;;;5073479;28;20196;-76
2021/01/04 00:46:08;;;;;;;168.20;51.20;;;2.60;89.90;;;;;;5073345;28;20233;-76
2021/01/04 00:48:39;;;;;;;496.73;88.78;;;2.60;90.80;;;;;;5072198;28;20208;-77
2021/01/04 00:51:18;;;;;;;47.40;42.08;;;2.70;91.90;;;;;;5065987;28;20197;-76
2021/01/04 00:53:48;;;;;;;53.15;43.42;;;2.70;92.70;;;;;;5053171;28;20243;-77
2021/01/04 00:56:42;;;;;;;46.40;41.08;;;2.90;91.80;;;;;;5053137;28;20311;-76
2021/01/04 00:59:23;;;;;;;89.85;47.28;;;2.90;91.30;;;;;;5063523;28;20192;-78
2021/01/04 01:02:11;;;;;;;45.72;40.75;;;3.00;90.40;;;;;;5053237;28;20208;-77
2021/01/04 01:04:44;;;;;;;409.50;82.47;;;3.00;90.60;;;;;;5053146;28;20196;-77
2021/01/04 01:07:14;;;;;;;117.63;45.30;;;3.00;92.70;;;;;;5052597;28;20694;-77
2021/01/04 01:09:43;;;;;;;73.88;42.40;;;2.90;93.10;;;;;;5072544;28;20192;-77
2021/01/04 01:12:34;;;;;;;48.08;42.08;;;2.80;93.30;;;;;;5055694;28;20189;-77
2021/01/04 01:15:19;;;;;;;50.20;41.08;;;2.70;92.70;;;;;;5052949;28;20206;-77
2021/01/04 01:18:22;;;;;;;51.38;41.42;;;2.70;92.60;;;;;;5056231;28;20203;-77
2021/01/04 01:20:54;;;;;;;55.92;45.45;;;2.70;92.20;;;;;;5072821;28;20200;-77
2021/01/04 01:23:23;;;;;;;46.58;40.08;;;2.80;91.60;;;;;;5052842;28;20196;-77
2021/01/04 01:25:57;;;;;;;220.32;57.80;;;2.70;90.60;;;;;;5052623;28;20229;-77
2021/01/04 01:29:08;;;;;;;49.05;42.42;;;2.80;91.30;;;;;;5053714;28;20216;-77
2021/01/04 01:32:02;;;;;;;51.08;43.50;;;2.70;91.80;;;;;;5052440;28;20200;-78
2021/01/04 01:34:42;;;;;;;127.88;49.78;;;2.70;93.00;;;;;;5052752;28;20189;-77
2021/01/04 01:37:48;;;;;;;687.50;128.02;;;2.80;94.70;;;;;;5069083;28;20211;-77
2021/01/04 01:40:43;;;;;;;48.95;42.00;;;2.70;94.50;;;;;;5072769;28;20565;-77
2021/01/04 01:43:41;;;;;;;50.90;42.33;;;2.90;93.50;;;;;;5068643;28;20507;-77
2021/01/04 01:46:15;;;;;;;47.53;42.42;;;2.90;91.70;;;;;;5037007;28;20266;-77
2021/01/04 01:48:48;;;;;;;47.40;42.38;;;2.80;92.30;;;;;;5052229;28;20527;-77
2021/01/04 01:51:34;;;;;;;50.38;43.38;;;2.70;92.10;;;;;;5058352;28;20527;-77
2021/01/04 01:54:09;;;;;;;52.75;41.03;;;2.70;91.70;;;;;;5072508;28;20665;-77
2021/01/04 01:56:46;;;;;;;51.83;42.83;;;2.70;91.10;;;;;;5072301;28;20558;-78
2021/01/04 01:59:25;;;;;;;48.15;42.22;;;2.70;91.10;;;;;;5062859;28;20196;-78
2021/01/04 02:02:02;;;;;;;50.35;44.75;;;2.70;92.00;;;;;;5053526;28;20202;-78
2021/01/04 02:04:42;;;;;;;91.13;46.60;;;2.80;92.70;;;;;;5058691;28;20198;-77
2021/01/04 02:07:14;;;;;;;50.15;43.10;;;2.80;91.70;;;;;;5072103;28;20227;-78
2021/01/04 02:09:46;;;;;;;49.63;42.78;;;2.80;91.80;;;;;;5058913;28;20291;-77
2021/01/04 02:12:22;;;;;;;45.03;40.10;;;2.90;92.00;;;;;;5052582;28;20196;-78
2021/01/04 02:14:58;;;;;;;46.35;41.45;;;2.90;90.60;;;;;;5052261;28;20242;-78
2021/01/04 02:17:41;;;;;;;970.00;156.07;;;3.00;90.30;;;;;;5052087;28;20216;-78
2021/01/04 02:20:49;;;;;;;46.72;41.53;;;3.00;90.80;;;;;;5068818;28;20226;-78
2021/01/04 02:23:25;;;;;;;77.82;43.15;;;3.00;90.40;;;;;;5023272;28;20206;-77
2021/01/04 02:25:55;;;;;;;45.75;39.47;;;2.90;90.20;;;;;;5070240;28;20207;-77
2021/01/04 02:28:28;;;;;;;47.25;42.15;;;2.90;90.00;;;;;;5072195;28;20234;-77
2021/01/04 02:30:54;;;;;;;46.15;41.28;;;3.00;89.60;;;;;;5074117;28;20222;-78
2021/01/04 02:33:21;;;;;;;44.63;39.85;;;2.90;89.10;;;;;;5077239;28;20500;-78
2021/01/04 02:35:49;;;;;;;45.22;40.42;;;2.90;89.20;;;;;;5057480;28;20288;-77
2021/01/04 02:38:21;;;;;;;45.20;40.70;;;2.80;89.00;;;;;;5052070;28;20200;-77
2021/01/04 02:40:48;;;;;;;45.40;40.67;;;2.80;89.20;;;;;;5053265;28;20193;-77
2021/01/04 02:43:15;;;;;;;213.45;54.50;;;2.90;89.00;;;;;;5051981;28;20650;-78
2021/01/04 02:45:41;;;;;;;86.25;44.53;;;2.90;89.40;;;;;;5051717;28;20216;-77
2021/01/04 02:48:34;;;;;;;45.75;40.90;;;2.80;89.70;;;;;;5054763;28;20759;-78
2021/01/04 02:51:09;;;;;;;48.10;40.58;;;2.80;89.80;;;;;;5068738;28;20207;-77
2021/01/04 02:54:04;;;;;;;74.10;43.95;;;2.70;89.90;;;;;;5075387;28;20195;-78
2021/01/04 02:56:48;;;;;;;46.05;41.20;;;2.70;90.20;;;;;;5055265;28;20216;-78
2021/01/04 02:59:41;;;;;;;45.45;40.60;;;2.70;89.90;;;;;;5054795;28;20203;-78
2021/01/04 03:02:12;;;;;;;45.05;40.45;;;2.70;89.80;;;;;;5055387;28;20192;-77
2021/01/04 03:04:39;;;;;;;46.13;41.33;;;2.60;89.60;;;;;;5058876;28;20184;-78
2021/01/04 03:07:10;;;;;;;46.08;41.28;;;2.70;89.50;;;;;;5074330;28;20227;-78
2021/01/04 03:09:41;;;;;;;45.95;41.15;;;2.70;89.20;;;;;;5055225;28;20201;-77
2021/01/04 03:12:12;;;;;;;460.30;83.90;;;2.60;89.90;;;;;;5055277;28;20207;-77
2021/01/04 03:14:55;;;;;;;45.58;40.10;;;2.60;91.00;;;;;;5058612;28;20654;-77
2021/01/04 03:17:33;;;;;;;44.85;40.30;;;2.80;90.70;;;;;;5074359;28;20208;-78
2021/01/04 03:20:04;;;;;;;48.35;41.55;;;2.70;91.00;;;;;;5075166;28;20198;-77
2021/01/04 03:22:31;;;;;;;45.42;40.55;;;2.70;92.70;;;;;;5075005;28;20199;-78
2021/01/04 03:24:57;;;;;;;71.82;46.42;;;2.70;90.90;;;;;;5074551;28;20185;-78
2021/01/04 03:27:26;;;;;;;48.72;43.33;;;2.60;91.00;;;;;;5074613;28;20231;-77
2021/01/04 03:29:53;;;;;;;46.60;41.72;;;2.60;91.80;;;;;;5074864;28;20207;-78
2021/01/04 03:32:20;;;;;;;46.13;41.17;;;2.70;90.80;;;;;;5074771;28;20203;-78
2021/01/04 03:34:46;;;;;;;46.70;41.85;;;2.70;90.40;;;;;;5070395;28;20200;-78
2021/01/04 03:37:12;;;;;;;45.42;40.55;;;2.70;89.70;;;;;;5055609;28;20217;-78
2021/01/04 03:39:41;;;;;;;46.40;41.72;;;2.70;89.10;;;;;;5074753;28;20196;-77
2021/01/04 03:42:08;;;;;;;45.45;40.58;;;2.70;89.30;;;;;;5074773;28;20196;-77
2021/01/04 03:44:35;;;;;;;46.03;41.22;;;2.70;91.00;;;;;;5074066;28;20185;-77
2021/01/04 03:47:02;;;;;;;45.58;40.97;;;2.70;90.60;;;;;;5073627;28;20697;-77
2021/01/04 03:49:28;;;;;;;327.55;66.15;;;2.70;91.40;;;;;;5066530;28;20279;-77
2021/01/04 03:51:57;;;;;;;56.20;43.88;;;2.70;92.80;;;;;;5055633;28;20195;-77
2021/01/04 03:54:24;;;;;;;48.55;41.75;;;2.70;92.60;;;;;;5054211;28;20196;-77
2021/01/04 03:56:50;;;;;;;43.78;39.17;;;2.70;93.00;;;;;;5054041;28;20212;-77
2021/01/04 03:59:17;;;;;;;49.47;40.72;;;2.70;91.20;;;;;;5061569;28;20653;-77
2021/01/04 04:01:48;;;;;;;46.03;41.10;;;2.70;94.00;;;;;;5074310;28;21074;-77
2021/01/04 04:04:15;;;;;;;44.08;39.33;;;2.80;92.30;;;;;;5070072;28;20195;-77
2021/01/04 04:06:41;;;;;;;46.05;41.15;;;2.90;90.70;;;;;;5054045;28;20224;-77
2021/01/04 04:09:09;;;;;;;46.72;42.33;;;2.90;90.50;;;;;;5053965;28;20228;-77
2021/01/04 04:11:35;;;;;;;50.30;45.10;;;2.80;89.90;;;;;;5067941;28;20188;-77
2021/01/04 04:14:02;;;;;;;47.65;42.80;;;2.80;89.60;;;;;;5055661;28;20246;-77
2021/01/04 04:16:28;;;;;;;63.08;45.72;;;2.70;90.10;;;;;;5053801;28;20221;-77
2021/01/04 04:18:55;;;;;;;49.95;44.70;;;2.70;91.80;;;;;;5054001;28;20189;-77
2021/01/04 04:21:22;;;;;;;50.05;45.10;;;2.90;90.40;;;;;;5063280;28;20294;-77
2021/01/04 04:23:48;;;;;;;49.55;44.15;;;2.90;89.70;;;;;;5074122;28;20191;-77
2021/01/04 04:26:19;;;;;;;48.63;43.72;;;3.00;89.70;;;;;;5073876;28;20230;-77
2021/01/04 04:28:45;;;;;;;50.60;45.63;;;3.00;88.80;;;;;;5078639;28;20220;-78
2021/01/04 04:31:12;;;;;;;51.20;43.92;;;3.00;88.40;;;;;;5069266;28;20200;-78
2021/01/04 04:33:39;;;;;;;53.78;46.85;;;2.90;90.20;;;;;;5054027;28;20192;-77
2021/01/04 04:36:07;;;;;;;49.58;44.55;;;3.00;89.70;;;;;;5054346;28;20227;-77
2021/01/04 04:38:34;;;;;;;48.60;43.55;;;2.80;89.60;;;;;;5053752;28;20616;-77
2021/01/04 04:41:01;;;;;;;51.08;45.60;;;2.80;89.80;;;;;;5073786;28;20196;-77
2021/01/04 04:43:33;;;;;;;48.30;43.10;;;2.70;90.20;;;;;;5072688;28;20226;-77
2021/01/04 04:46:03;;;;;;;50.88;45.67;;;2.70;90.50;;;;;;5054322;28;20220;-77
2021/01/04 04:48:53;;;;;;;49.67;44.58;;;2.70;90.70;;;;;;5053379;28;20701;-77
2021/01/04 04:51:44;;;;;;;125.30;47.90;;;2.70;90.70;;;;;;5053260;28;20204;-77
2021/01/04 04:54:52;;;;;;;49.25;44.05;;;2.80;90.30;;;;;;5057739;28;20189;-77
2021/01/04 04:57:46;;;;;;;50.42;45.22;;;2.90;89.70;;;;;;5058571;28;20203;-77
2021/01/04 05:00:30;;;;;;;790.10;129.23;;;2.70;90.70;;;;;;5073243;28;20234;-77
2021/01/04 05:03:14;;;;;;;48.13;42.92;;;2.70;93.00;;;;;;5073381;28;20196;-77
2021/01/04 05:06:04;;;;;;;49.05;43.83;;;2.90;91.10;;;;;;5070827;28;20202;-77
2021/01/04 05:08:46;;;;;;;50.40;43.83;;;2.90;90.70;;;;;;5061835;28;20607;-77
2021/01/04 05:11:14;;;;;;;51.03;45.75;;;2.90;90.60;;;;;;5072828;28;20196;-77
2021/01/04 05:13:46;;;;;;;105.28;47.88;;;2.80;90.70;;;;;;5073111;28;20200;-78
2021/01/04 05:16:17;;;;;;;501.48;94.88;;;2.70;92.10;;;;;;5066392;28;20212;-77
2021/01/04 05:19:16;;;;;;;48.28;43.35;;;2.70;93.80;;;;;;5053125;28;20189;-77
2021/01/04 05:22:24;;;;;;;51.22;43.47;;;2.80;92.60;;;;;;5053037;28;20200;-77
2021/01/04 05:25:09;;;;;;;50.05;44.65;;;2.70;93.20;;;;;;5053004;28;20248;-77
2021/01/04 05:28:08;;;;;;;49.97;44.75;;;2.60;92.60;;;;;;5053740;28;20338;-77
2021/01/04 05:30:49;;;;;;;49.80;44.72;;;2.70;91.70;;;;;;5058711;28;20207;-77
2021/01/04 05:33:43;;;;;;;50.35;45.03;;;2.70;91.60;;;;;;5052760;28;20196;-77
2021/01/04 05:36:25;;;;;;;169.38;52.30;;;2.80;90.80;;;;;;5056824;28;20207;-77
2021/01/04 05:39:03;;;;;;;1423.15;222.48;;;2.70;95.20;;;;;;5072804;28;20202;-77
2021/01/04 05:41:48;;;;;;;1906.32;313.60;;;2.70;97.90;;;;;;5072971;28;20199;-77
2021/01/04 05:44:38;;;;;;;406.83;91.38;;;2.70;96.80;;;;;;5072847;28;20649;-77
2021/01/04 05:47:24;;;;;;;53.03;45.20;;;2.80;96.90;;;;;;5060116;28;20220;-77
2021/01/04 05:49:57;;;;;;;51.40;45.80;;;2.80;94.70;;;;;;5070384;28;20196;-77
2021/01/04 05:52:24;;;;;;;49.30;44.20;;;2.80;94.30;;;;;;5078973;28;20256;-77
2021/01/04 05:54:51;;;;;;;49.65;44.38;;;2.80;93.70;;;;;;5083114;28;20622;-77
2021/01/04 05:57:18;;;;;;;52.00;46.58;;;2.80;93.30;;;;;;5078385;28;20211;-77
2021/01/04 05:59:46;;;;;;;49.40;44.30;;;2.80;93.40;;;;;;5062298;28;20200;-77
2021/01/04 06:02:22;;;;;;;49.45;44.42;;;2.80;92.80;;;;;;5052610;28;20196;-77
2021/01/04 06:04:48;;;;;;;52.13;46.63;;;2.80;92.10;;;;;;5052614;28;20196;-77
2021/01/04 06:07:15;;;;;;;48.80;43.70;;;2.70;92.30;;;;;;5052083;28;20221;-77
2021/01/04 06:09:41;;;;;;;49.72;42.38;;;2.70;92.60;;;;;;5052402;28;20237;-78
2021/01/04 06:12:18;;;;;;;46.97;42.20;;;2.70;94.10;;;;;;5067738;28;20193;-78
2021/01/04 06:14:45;;;;;;;51.97;40.53;;;2.70;92.70;;;;;;5062010;28;20661;-77
2021/01/04 06:17:31;;;;;;;46.63;41.83;;;2.70;92.50;;;;;;5052118;28;20712;-77
2021/01/04 06:20:10;;;;;;;46.63;41.78;;;2.70;92.10;;;;;;5052415;28;20677;-77
2021/01/04 06:22:36;;;;;;;48.75;43.53;;;2.70;91.90;;;;;;5073622;28;20519;-77
2021/01/04 06:25:05;;;;;;;49.65;44.25;;;2.60;92.20;;;;;;5080401;28;20203;-77
2021/01/04 06:27:35;;;;;;;48.13;42.15;;;2.70;92.10;;;;;;5078965;28;20223;-77
2021/01/04 06:30:26;;;;;;;473.63;85.45;;;2.70;94.70;;;;;;5076192;28;20753;-77
2021/01/04 06:32:54;;;;;;;72.13;45.55;;;2.80;93.40;;;;;;5056135;28;20200;-77
2021/01/04 06:35:27;;;;;;;59.00;52.67;;;2.80;93.30;;;;;;5055907;28;20201;-77
2021/01/04 06:38:10;;;;;;;105.18;49.90;;;2.80;93.00;;;;;;5057606;28;20659;-77
2021/01/04 06:40:40;;;;;;;47.95;43.05;;;2.80;93.90;;;;;;5055955;28;20258;-77
2021/01/04 06:43:12;;;;;;;49.10;43.90;;;2.90;94.20;;;;;;5059292;28;20278;-77
2021/01/04 06:45:49;;;;;;;47.47;42.45;;;3.00;93.00;;;;;;5075684;28;20204;-77
2021/01/04 06:48:22;;;;;;;50.22;42.97;;;3.00;91.90;;;;;;5075135;28;20218;-77
2021/01/04 06:51:06;;;;;;;49.40;44.40;;;2.90;91.70;;;;;;5065519;28;20621;-77
2021/01/04 06:53:56;;;;;;;49.97;44.72;;;2.90;91.60;;;;;;5055332;28;20200;-77
2021/01/04 06:56:58;;;;;;;50.08;44.20;;;3.00;91.10;;;;;;5055396;28;20220;-78
2021/01/04 07:00:03;;;;;;;47.75;42.47;;;3.00;90.90;;;;;;5071780;28;20196;-77
2021/01/04 07:03:03;;;;;;;53.40;44.25;;;3.00;90.50;;;;;;5074645;28;20279;-77
2021/01/04 07:05:51;;;;;;;47.30;42.28;;;2.90;90.60;;;;;;5062208;28;20200;-76
2021/01/04 07:08:39;;;;;;;170.02;51.53;;;2.80;90.80;;;;;;5075140;28;20220;-77
2021/01/04 07:11:21;;;;;;;49.20;43.78;;;2.80;91.70;;;;;;5075317;28;20196;-77
2021/01/04 07:14:06;;;;;;;49.40;44.10;;;2.80;91.60;;;;;;5064923;28;20188;-77
2021/01/04 07:16:58;;;;;;;47.55;42.47;;;2.80;91.80;;;;;;5062484;28;20570;-77
2021/01/04 07:19:39;;;;;;;54.85;44.35;;;2.80;92.90;;;;;;5075196;28;20565;-78
2021/01/04 07:22:16;;;;;;;50.38;44.38;;;2.80;94.40;;;;;;5075258;28;20206;-77
2021/01/04 07:24:59;;;;;;;48.15;43.22;;;2.80;94.50;;;;;;5073077;28;20199;-77
2021/01/04 07:27:38;;;;;;;48.33;43.10;;;2.70;93.60;;;;;;5054782;28;20609;-77
2021/01/04 07:30:19;;;;;;;50.05;42.97;;;2.70;93.10;;;;;;5054921;28;20195;-77
2021/01/04 07:32:58;;;;;;;47.10;42.03;;;2.80;92.70;;;;;;5054366;28;20291;-77
2021/01/04 07:35:31;;;;;;;290.98;68.90;;;2.80;92.10;;;;;;5054990;28;20691;-77
2021/01/04 07:38:16;;;;;;;46.30;41.33;;;2.80;93.90;;;;;;5054891;28;20654;-77
2021/01/04 07:40:54;;;;;;;47.80;42.85;;;2.80;93.40;;;;;;5054818;28;20207;-77
2021/01/04 07:43:54;;;;;;;49.03;43.15;;;2.70;93.90;;;;;;5054983;28;20192;-77
2021/01/04 07:46:53;;;;;;;47.65;42.63;;;2.70;92.80;;;;;;5065815;28;20326;-77
2021/01/04 07:50:02;;;;;;;47.50;42.38;;;2.70;92.70;;;;;;5074306;28;20227;-77
2021/01/04 07:53:08;;;;;;;61.00;42.90;;;2.70;94.10;;;;;;5054848;28;20195;-77
2021/01/04 07:56:01;;;;;;;48.03;43.13;;;2.80;93.50;;;;;;5074438;28;20199;-77
2021/01/04 07:58:51;;;;;;;48.90;43.63;;;2.90;93.70;;;;;;5074275;28;20192;-77
2021/01/04 08:01:53;;;;;;;48.83;43.78;;;3.00;91.70;;;;;;5074395;28;20204;-77
2021/01/04 08:04:58;;;;;;;51.70;43.70;;;3.00;90.30;;;;;;5051519;28;20189;-77
2021/01/04 08:07:40;;;;;;;50.92;45.30;;;3.00;90.30;;;;;;5053775;28;20212;-77
2021/01/04 08:10:51;;;;;;;49.03;43.83;;;2.90;92.50;;;;;;5072598;28;20202;-77
2021/01/04 08:13:59;;;;;;;47.13;42.28;;;2.80;92.50;;;;;;5058993;28;20223;-77
2021/01/04 08:16:31;;;;;;;48.97;43.63;;;2.80;92.80;;;;;;5063887;28;20208;-77
2021/01/04 08:19:01;;;;;;;45.58;40.97;;;3.00;91.70;;;;;;5055149;28;20189;-77
2021/01/04 08:21:42;;;;;;;67.93;43.45;;;2.90;91.50;;;;;;5054001;28;20287;-77
2021/01/04 08:24:16;;;;;;;48.65;43.45;;;2.90;92.00;;;;;;5054044;28;20254;-77
2021/01/04 08:26:58;;;;;;;48.95;43.45;;;2.90;91.50;;;;;;5065121;28;20268;-77
2021/01/04 08:29:37;;;;;;;48.15;43.13;;;3.00;93.20;;;;;;5071854;28;20212;-78
2021/01/04 08:32:13;;;;;;;46.85;41.95;;;3.00;91.50;;;;;;5073300;28;20212;-78
2021/01/04 08:34:43;;;;;;;48.13;42.85;;;2.90;91.60;;;;;;5073821;28;20202;-78
2021/01/04 08:37:12;;;;;;;46.75;41.72;;;3.00;91.30;;;;;;5071887;28;20226;-78
2021/01/04 08:39:44;;;;;;;46.10;41.30;;;3.00;92.50;;;;;;5053594;28;20213;-78
2021/01/04 08:42:28;;;;;;;48.05;42.70;;;3.10;91.20;;;;;;5053562;28;20203;-78
2021/01/04 08:44:58;;;;;;;46.08;41.55;;;3.10;90.60;;;;;;5053137;28;20197;-78
2021/01/04 08:47:31;;;;;;;46.13;41.30;;;3.10;90.60;;;;;;5073088;28;20220;-78
2021/01/04 08:50:11;;;;;;;55.55;42.03;;;3.10;90.50;;;;;;5055610;28;20536;-78
2021/01/04 08:52:47;;;;;;;45.50;40.75;;;3.10;90.60;;;;;;5053362;28;20677;-78
2021/01/04 08:55:26;;;;;;;47.42;42.42;;;3.20;92.20;;;;;;5056170;28;20192;-78
2021/01/04 08:57:52;;;;;;;46.05;41.25;;;3.30;91.30;;;;;;5073356;28;20212;-77
2021/01/04 09:00:23;;;;;;;49.95;44.65;;;3.40;90.40;;;;;;5062849;28;20192;-78
2021/01/04 09:02:50;;;;;;;45.25;40.35;;;3.40;91.40;;;;;;5053206;28;20188;-78
2021/01/04 09:05:30;;;;;;;50.75;43.28;;;3.40;89.40;;;;;;5056335;28;20188;-78
2021/01/04 09:07:58;;;;;;;46.60;41.70;;;3.40;88.80;;;;;;5073408;28;20336;-78
2021/01/04 09:10:33;;;;;;;49.35;44.30;;;3.30;88.90;;;;;;5056206;28;20193;-78
2021/01/04 09:13:09;;;;;;;46.38;41.78;;;3.30;89.10;;;;;;5054089;28;20216;-78
2021/01/04 09:15:40;;;;;;;43.80;39.30;;;3.40;89.60;;;;;;5055294;28;20199;-78
2021/01/04 09:18:32;;;;;;;47.65;42.80;;;3.40;88.90;;;;;;5054865;28;20698;-78
2021/01/04 09:21:02;;;;;;;46.72;42.05;;;3.30;88.80;;;;;;5061088;28;20638;-76
2021/01/04 09:23:34;;;;;;;105.30;45.22;;;3.40;90.40;;;;;;5069872;28;20192;-77
2021/01/04 09:26:09;;;;;;;47.33;42.00;;;3.40;89.80;;;;;;5052744;28;20274;-76
2021/01/04 09:28:41;;;;;;;47.95;42.88;;;3.40;89.40;;;;;;5052691;28;20220;-76
2021/01/04 09:31:11;;;;;;;46.50;41.50;;;3.50;88.30;;;;;;5057922;28;20680;-77
2021/01/04 09:33:48;;;;;;;46.40;41.47;;;3.40;91.20;;;;;;5070168;28;20194;-77
2021/01/04 09:36:16;;;;;;;44.65;40.20;;;3.40;91.50;;;;;;5052351;28;20701;-77
2021/01/04 09:38:43;;;;;;;46.22;41.42;;;3.50;89.70;;;;;;5067672;28;20187;-76
2021/01/04 09:41:11;;;;;;;46.17;40.72;;;3.50;90.00;;;;;;5072585;28;20256;-76
2021/01/04 09:43:40;;;;;;;159.05;58.35;;;3.50;89.80;;;;;;5071339;28;20569;-77
2021/01/04 09:46:23;;;;;;;47.63;42.72;;;3.60;89.60;;;;;;5052375;28;20216;-77
2021/01/04 09:48:56;;;;;;;47.85;42.95;;;3.60;89.10;;;;;;5052096;28;20220;-77
2021/01/04 09:51:32;;;;;;;46.53;41.60;;;3.60;88.30;;;;;;5052464;28;20291;-76
2021/01/04 09:54:02;;;;;;;46.70;41.75;;;3.40;87.60;;;;;;5066153;28;20279;-76
2021/01/04 09:56:31;;;;;;;46.60;41.65;;;3.40;88.20;;;;;;5074566;28;20230;-77
2021/01/04 09:59:03;;;;;;;45.35;40.83;;;3.40;88.20;;;;;;5076499;28;20687;-77
2021/01/04 10:01:32;;;;;;;48.05;42.88;;;3.50;88.30;;;;;;5076499;28;20565;-76
2021/01/04 10:04:00;;;;;;;46.30;41.30;;;3.50;87.40;;;;;;5075714;28;20191;-77
2021/01/04 10:06:32;;;;;;;47.05;42.25;;;3.60;87.00;;;;;;5076186;28;20288;-76
2021/01/04 10:08:59;;;;;;;45.33;40.63;;;3.50;87.30;;;;;;5076343;28;20226;-77
2021/01/04 10:11:30;;;;;;;44.63;39.75;;;3.50;88.30;;;;;;5076432;28;20222;-76
2021/01/04 10:14:04;;;;;;;46.90;41.80;;;3.70;86.70;;;;;;5062691;28;20249;-76
2021/01/04 10:16:33;;;;;;;45.60;40.65;;;3.70;86.50;;;;;;5056037;28;20628;-77
2021/01/04 10:19:05;;;;;;;45.95;41.30;;;3.70;86.40;;;;;;5056506;28;20201;-76
2021/01/04 10:21:41;;;;;;;45.47;40.90;;;3.70;86.50;;;;;;5063154;28;20196;-76
2021/01/04 10:24:15;;;;;;;46.63;41.92;;;3.50;87.10;;;;;;5065293;28;20193;-76
2021/01/04 10:26:45;;;;;;;46.63;41.92;;;3.50;87.20;;;;;;5055883;28;20780;-76
2021/01/04 10:29:16;;;;;;;46.92;42.20;;;3.70;86.80;;;;;;5057009;28;20213;-76
2021/01/04 10:31:43;;;;;;;47.55;42.53;;;3.70;86.10;;;;;;5070269;28;20224;-76
2021/01/04 10:34:12;;;;;;;533.97;85.60;;;3.90;85.70;;;;;;5075090;28;20726;-76
2021/01/04 10:36:41;;;;;;;49.92;42.33;;;3.80;87.40;;;;;;5075590;28;20218;-76
2021/01/04 10:39:17;;;;;;;46.50;41.83;;;3.70;87.90;;;;;;5075702;28;20283;-76
2021/01/04 10:41:44;;;;;;;47.35;41.53;;;3.80;86.30;;;;;;5074166;28;20206;-76
2021/01/04 10:44:13;;;;;;;47.28;42.45;;;3.80;86.30;;;;;;5075575;28;20287;-76
2021/01/04 10:46:43;;;;;;;48.03;42.90;;;3.70;86.40;;;;;;5075668;28;20215;-76
2021/01/04 10:49:22;;;;;;;45.55;40.90;;;3.60;86.40;;;;;;5073757;28;20215;-76
2021/01/04 10:51:51;;;;;;;46.28;41.67;;;3.60;86.70;;;;;;5075674;28;20195;-77
2021/01/04 10:54:22;;;;;;;44.03;39.78;;;3.60;87.20;;;;;;5075456;28;20206;-77
2021/01/04 10:57:00;;;;;;;42.00;37.70;;;3.60;87.60;;;;;;5060820;28;20269;-77
2021/01/04 10:59:37;;;;;;;45.33;40.95;;;3.70;90.20;;;;;;5055922;28;20197;-77
2021/01/04 11:02:04;;;;;;;44.63;40.13;;;3.80;88.30;;;;;;5061190;28;20291;-77
2021/01/04 11:04:33;;;;;;;45.03;40.38;;;3.80;89.80;;;;;;5065443;28;20210;-77
2021/01/04 11:07:07;;;;;;;54.80;40.42;;;3.90;87.10;;;;;;5077411;28;20223;-77
2021/01/04 11:09:36;;;;;;;46.80;42.08;;;3.90;86.70;;;;;;5075174;28;20273;-77
2021/01/04 11:12:13;;;;;;;42.42;38.35;;;4.10;84.90;;;;;;5075142;28;20199;-77
2021/01/04 11:14:51;;;;;;;41.95;37.95;;;3.90;84.10;;;;;;5075261;28;20252;-77
2021/01/04 11:17:22;;;;;;;44.10;39.35;;;3.90;85.10;;;;;;5074938;28;20215;-77
2021/01/04 11:19:50;;;;;;;42.25;38.08;;;4.10;85.40;;;;;;5074923;28;20566;-77
2021/01/04 11:22:20;;;;;;;44.20;39.97;;;4.10;84.40;;;;;;5057408;28;20188;-77
2021/01/04 11:24:46;;;;;;;43.17;38.65;;;4.10;83.60;;;;;;5054971;28;20201;-77
2021/01/04 11:27:13;;;;;;;42.53;38.38;;;4.10;83.40;;;;;;5054818;28;20220;-77
2021/01/04 11:29:41;;;;;;;43.40;39.15;;;4.10;83.50;;;;;;5063465;28;20215;-77
2021/01/04 11:32:08;;;;;;;43.30;39.20;;;4.10;81.40;;;;;;5074220;28;20204;-77
2021/01/04 11:34:34;;;;;;;41.33;37.42;;;4.10;81.20;;;;;;5074814;28;20196;-77
2021/01/04 11:37:02;;;;;;;41.38;37.33;;;4.00;81.50;;;;;;5074497;28;20302;-77
2021/01/04 11:39:28;;;;;;;41.97;37.88;;;4.00;82.40;;;;;;5066982;28;20207;-77
2021/01/04 11:41:54;;;;;;;40.50;36.63;;;4.00;82.20;;;;;;5054547;28;20199;-77
2021/01/04 11:44:21;;;;;;;42.47;38.40;;;4.10;81.80;;;;;;5054539;28;20287;-77
2021/01/04 11:46:47;;;;;;;39.35;35.58;;;4.10;81.40;;;;;;5054215;28;20254;-77
2021/01/04 11:49:14;;;;;;;42.35;38.40;;;4.20;82.20;;;;;;5054091;28;20217;-77
2021/01/04 11:51:40;;;;;;;36.00;32.85;;;4.40;85.60;;;;;;5065548;28;20551;-77
2021/01/04 11:54:08;;;;;;;38.70;35.03;;;4.30;81.50;;;;;;5074151;28;20202;-77
2021/01/04 11:56:34;;;;;;;36.20;33.08;;;4.40;80.50;;;;;;5074035;28;20307;-77
2021/01/04 11:59:00;;;;;;;36.17;33.08;;;4.30;77.60;;;;;;5074274;28;20202;-77
2021/01/04 12:01:27;;;;;;;36.35;33.33;;;4.20;77.60;;;;;;5074241;28;20200;-77
2021/01/04 12:03:54;;;;;;;35.75;32.85;;;4.10;77.80;;;;;;5065593;28;20729;-77
2021/01/04 12:06:21;;;;;;;34.85;32.22;;;4.30;76.40;;;;;;5073934;28;20582;-77
2021/01/04 12:08:48;;;;;;;33.38;30.88;;;4.40;75.80;;;;;;5073980;28;20618;-77
2021/01/04 12:11:15;;;;;;;34.42;31.83;;;4.30;76.50;;;;;;5074120;28;20192;-77
2021/01/04 12:13:42;;;;;;;32.63;30.08;;;4.30;75.90;;;;;;5060861;28;20195;-77
2021/01/04 12:16:08;;;;;;;32.50;30.00;;;4.20;75.30;;;;;;5054161;28;20221;-77
2021/01/04 12:18:34;;;;;;;33.17;30.75;;;4.10;76.90;;;;;;5053661;28;20198;-77
2021/01/04 12:21:01;;;;;;;33.90;31.42;;;4.10;76.20;;;;;;5053832;28;20210;-77
2021/01/04 12:23:27;;;;;;;33.28;30.63;;;4.40;73.80;;;;;;5064689;28;20193;-77
2021/01/04 12:25:54;;;;;;;34.00;31.25;;;4.30;76.50;;;;;;5073381;28;20246;-77
2021/01/04 12:28:21;;;;;;;32.65;30.25;;;4.30;73.80;;;;;;5073612;28;20220;-77
2021/01/04 12:30:47;;;;;;;36.65;33.78;;;4.10;73.60;;;;;;5073484;28;20207;-77
2021/01/04 12:33:13;;;;;;;36.35;33.45;;;4.00;73.60;;;;;;5064172;28;20528;-77
2021/01/04 12:35:40;;;;;;;34.72;31.98;;;3.80;74.50;;;;;;5053436;28;20680;-77
2021/01/04 12:38:06;;;;;;;34.70;31.90;;;4.00;74.80;;;;;;5053496;28;20733;-77
2021/01/04 12:40:35;;;;;;;34.33;31.52;;;4.10;74.70;;;;;;5053531;28;20314;-77
2021/01/04 12:43:02;;;;;;;36.22;33.42;;;3.90;74.90;;;;;;5060279;28;20184;-77
2021/01/04 12:45:30;;;;;;;35.55;32.75;;;3.90;75.80;;;;;;5061608;28;20207;-77
2021/01/04 12:47:57;;;;;;;33.83;31.17;;;4.10;75.80;;;;;;5053043;28;20625;-77
2021/01/04 12:50:23;;;;;;;36.22;33.13;;;3.90;74.80;;;;;;5061418;28;20279;-77
2021/01/04 12:52:50;;;;;;;38.35;35.20;;;3.90;74.80;;;;;;5053172;28;20681;-77
2021/01/04 12:55:17;;;;;;;37.30;34.10;;;3.90;75.10;;;;;;5052814;28;20287;-77
2021/01/04 12:57:46;;;;;;;36.30;33.20;;;3.80;75.60;;;;;;5052957;28;20232;-77
2021/01/04 13:00:15;;;;;;;35.70;32.90;;;3.80;76.20;;;;;;5054112;28;20231;-77
2021/01/04 13:02:42;;;;;;;36.80;33.70;;;3.70;75.90;;;;;;5053031;28;20197;-77
2021/01/04 13:05:10;;;;;;;37.35;34.15;;;3.90;75.40;;;;;;5053179;28;20569;-77
2021/01/04 13:07:36;;;;;;;37.33;34.13;;;3.90;74.10;;;;;;5053294;28;20607;-77
2021/01/04 13:10:03;;;;;;;37.00;33.90;;;3.80;75.40;;;;;;5052970;28;20216;-77
2021/01/04 13:12:30;;;;;;;38.58;35.17;;;3.60;75.60;;;;;;5053033;28;20278;-77
2021/01/04 13:14:56;;;;;;;39.97;35.97;;;3.70;75.40;;;;;;5058471;28;20287;-77
2021/01/04 13:17:22;;;;;;;40.35;36.78;;;3.60;74.60;;;;;;5072701;28;20709;-77